Time,TemperatureF,DewpointF,PressureIn,WindDirection,WindDirectionDegrees,WindSpeedMPH,WindSpeedGustMPH,Humidity,HourlyPrecipIn,Conditions,Clouds,dailyrainin,SoftwareType,DateUTC
2013-05-16 00:06:00,74.7,58.0,29.84,SSE,168,1.0,5.0,56,0.00,,,0.00,weatherlink.com 1.10,2013-05-16 04:06:00,
2013-05-16 00:21:00,74.2,58.0,29.85,WSW,252,2.0,4.0,57,0.00,,,0.00,weatherlink.com 1.10,2013-05-16 04:21:00,
2013-05-16 00:36:00,73.9,58.0,29.85,SW,236,2.0,4.0,58,0.00,,,0.00,weatherlink.com 1.10,2013-05-16 04:36:00,
2013-05-16 00:51:00,73.6,58.0,29.86,SW,229,3.0,5.0,59,0.00,,,0.00,weatherlink.com 1.10,2013-05-16 04:51:00,
2013-05-16 01:06:00,73.3,58.0,29.86,WSW,249,3.0,7.0,59,0.00,,,0.00,weatherlink.com 1.10,2013-05-16 05:06:00,
2013-05-16 01:21:00,72.9,59.0,29.85,SSW,197,2.0,4.0,61,0.00,,,0.00,weatherlink.com 1.10,2013-05-16 05:21:00,
2013-05-16 01:36:00,72.7,59.0,29.85,SSW,205,2.0,4.0,62,0.00,,,0.00,weatherlink.com 1.10,2013-05-16 05:36:00,
2013-05-16 01:51:00,72.4,59.0,29.84,SSW,203,2.0,6.0,62,0.00,,,0.00,weatherlink.com 1.10,2013-05-16 05:51:00,
2013-05-16 02:06:00,72.0,59.0,29.85,SW,229,1.0,4.0,63,0.00,,,0.00,weatherlink.com 1.10,2013-05-16 06:06:00,
2013-05-16 02:21:00,71.7,59.0,29.85,SW,236,2.0,3.0,64,0.00,,,0.00,weatherlink.com 1.10,2013-05-16 06:21:00,
2013-05-16 02:36:00,71.8,59.0,29.85,SW,233,2.0,4.0,64,0.00,,,0.00,weatherlink.com 1.10,2013-05-16 06:36:00,
2013-05-16 02:51:00,71.5,59.0,29.85,SW,222,1.0,3.0,65,0.00,,,0.00,weatherlink.com 1.10,2013-05-16 06:51:00,
2013-05-16 03:06:00,71.1,59.0,29.85,WSW,248,2.0,4.0,65,0.00,,,0.00,weatherlink.com 1.10,2013-05-16 07:06:00,
2013-05-16 03:21:00,70.8,59.0,29.84,SSW,211,0.0,4.0,66,0.00,,,0.00,weatherlink.com 1.10,2013-05-16 07:21:00,
2013-05-16 03:36:00,70.4,59.0,29.84,WSW,242,1.0,5.0,67,0.00,,,0.00,weatherlink.com 1.10,2013-05-16 07:36:00,
2013-05-16 03:51:00,70.1,59.0,29.84,SW,226,0.0,4.0,68,0.00,,,0.00,weatherlink.com 1.10,2013-05-16 07:51:00,
2013-05-16 04:06:00,69.8,59.0,29.84,SW,232,0.0,1.0,68,0.00,,,0.00,weatherlink.com 1.10,2013-05-16 08:06:00,
2013-05-16 04:21:00,69.4,59.0,29.84,SW,235,1.0,2.0,69,0.00,,,0.00,weatherlink.com 1.10,2013-05-16 08:21:00,
2013-05-16 04:36:00,69.1,59.0,29.84,SW,231,1.0,2.0,70,0.00,,,0.00,weatherlink.com 1.10,2013-05-16 08:36:00,
2013-05-16 04:51:00,68.8,59.0,29.84,WSW,245,0.0,2.0,70,0.00,,,0.00,weatherlink.com 1.10,2013-05-16 08:51:00,
2013-05-16 05:06:00,68.4,58.0,29.85,WSW,243,0.0,1.0,70,0.00,,,0.00,weatherlink.com 1.10,2013-05-16 09:06:00,
2013-05-16 05:21:00,68.3,59.0,29.85,SW,228,0.0,0.0,71,0.00,,,0.00,weatherlink.com 1.10,2013-05-16 09:21:00,
2013-05-16 05:36:00,68.4,58.0,29.85,SW,222,0.0,2.0,70,0.00,,,0.00,weatherlink.com 1.10,2013-05-16 09:36:00,
2013-05-16 05:51:00,68.4,58.0,29.85,SW,226,1.0,2.0,69,0.00,,,0.00,weatherlink.com 1.10,2013-05-16 09:51:00,
2013-05-16 06:06:00,-999.0,-99.9,29.86,North,-999,-999.0,-999.0,-999,0.00,,,0.00,weatherlink.com 1.10,2013-05-16 10:06:00,
2013-05-16 06:22:00,-999.0,-99.9,29.86,North,-999,-999.0,-999.0,-999,0.00,,,0.00,weatherlink.com 1.10,2013-05-16 10:22:00,
2013-05-16 06:37:00,-999.0,-99.9,29.87,North,-999,-999.0,-999.0,-999,0.00,,,0.00,weatherlink.com 1.10,2013-05-16 10:37:00,
2013-05-16 06:52:00,-999.0,-99.9,29.87,North,-999,-999.0,-999.0,-999,0.00,,,0.00,weatherlink.com 1.10,2013-05-16 10:52:00,
2013-05-16 07:07:00,-999.0,-99.9,29.88,North,-999,-999.0,-999.0,-999,0.00,,,0.00,weatherlink.com 1.10,2013-05-16 11:07:00,
2013-05-16 07:22:00,-999.0,-99.9,29.88,North,-999,-999.0,-999.0,-999,0.00,,,0.00,weatherlink.com 1.10,2013-05-16 11:22:00,
2013-05-16 07:37:00,67.8,59.0,29.89,SW,236,0.0,0.0,73,0.00,,,0.00,weatherlink.com 1.10,2013-05-16 11:37:00,
2013-05-16 07:52:00,68.9,59.0,29.88,WSW,237,0.0,2.0,71,0.00,,,0.00,weatherlink.com 1.10,2013-05-16 11:52:00,
2013-05-16 08:07:00,69.7,59.0,29.89,SSW,201,0.0,3.0,69,0.00,,,0.00,weatherlink.com 1.10,2013-05-16 12:07:00,
2013-05-16 08:22:00,70.4,59.0,29.89,SW,231,3.0,5.0,67,0.00,,,0.00,weatherlink.com 1.10,2013-05-16 12:22:00,
2013-05-16 08:37:00,70.5,59.0,29.89,WSW,246,0.0,3.0,67,0.00,,,0.00,weatherlink.com 1.10,2013-05-16 12:37:00,
2013-05-16 08:52:00,70.5,59.0,29.89,SW,221,2.0,5.0,67,0.00,,,0.00,weatherlink.com 1.10,2013-05-16 12:52:00,
2013-05-16 09:07:00,69.9,58.0,29.90,SW,219,3.0,7.0,67,0.00,,,0.00,weatherlink.com 1.10,2013-05-16 13:07:00,
2013-05-16 09:23:00,69.8,59.0,29.90,SW,235,0.0,5.0,69,0.00,,,0.00,weatherlink.com 1.10,2013-05-16 13:23:00,
2013-05-16 09:37:00,71.4,60.0,29.90,SW,226,3.0,7.0,68,0.00,,,0.00,weatherlink.com 1.10,2013-05-16 13:37:00,
2013-05-16 09:52:00,71.6,60.0,29.91,WSW,242,2.0,7.0,67,0.00,,,0.00,weatherlink.com 1.10,2013-05-16 13:52:00,
2013-05-16 10:07:00,71.5,60.0,29.91,SW,225,4.0,7.0,67,0.00,,,0.00,weatherlink.com 1.10,2013-05-16 14:07:00,
2013-05-16 10:22:00,73.0,61.0,29.91,SW,221,0.0,9.0,66,0.00,,,0.00,weatherlink.com 1.10,2013-05-16 14:22:00,
2013-05-16 10:37:00,74.8,62.0,29.91,WSW,250,2.0,8.0,65,0.00,,,0.00,weatherlink.com 1.10,2013-05-16 14:37:00,
2013-05-16 10:52:00,75.1,62.0,29.91,SW,229,2.0,7.0,65,0.00,,,0.00,weatherlink.com 1.10,2013-05-16 14:52:00,
2013-05-16 11:07:00,75.2,63.0,29.91,SW,219,1.0,5.0,66,0.00,,,0.00,weatherlink.com 1.10,2013-05-16 15:07:00,
2013-05-16 11:22:00,75.8,64.0,29.92,WNW,284,3.0,5.0,67,0.00,,,0.00,weatherlink.com 1.10,2013-05-16 15:22:00,
2013-05-16 11:37:00,75.0,65.0,29.92,WNW,292,1.0,4.0,70,0.01,,,0.01,weatherlink.com 1.10,2013-05-16 15:37:00,
2013-05-16 11:52:00,73.3,66.0,29.92,NW,320,1.0,2.0,77,0.01,,,0.01,weatherlink.com 1.10,2013-05-16 15:52:00,
2013-05-16 12:07:00,73.7,67.0,29.92,NW,318,0.0,0.0,79,0.01,,,0.01,weatherlink.com 1.10,2013-05-16 16:07:00,
2013-05-16 12:22:00,73.7,68.0,29.93,SW,235,2.0,2.0,81,0.01,,,0.01,weatherlink.com 1.10,2013-05-16 16:22:00,
2013-05-16 12:37:00,73.9,67.0,29.92,SW,226,0.0,1.0,80,0.00,,,0.01,weatherlink.com 1.10,2013-05-16 16:37:00,
2013-05-16 12:52:00,74.3,67.0,29.91,ESE,105,0.0,2.0,77,0.00,,,0.01,weatherlink.com 1.10,2013-05-16 16:52:00,
2013-05-16 13:07:00,73.5,68.0,29.91,SW,231,0.0,1.0,83,0.02,,,0.03,weatherlink.com 1.10,2013-05-16 17:07:00,
2013-05-16 13:22:00,71.9,68.0,29.92,SW,225,0.0,5.0,87,0.02,,,0.03,weatherlink.com 1.10,2013-05-16 17:22:00,
2013-05-16 13:37:00,72.2,69.0,29.91,SW,236,1.0,1.0,88,0.04,,,0.05,weatherlink.com 1.10,2013-05-16 17:37:00,
2013-05-16 13:52:00,72.2,68.0,29.91,SW,226,1.0,1.0,86,0.04,,,0.05,weatherlink.com 1.10,2013-05-16 17:52:00,
2013-05-16 14:07:00,71.9,69.0,29.92,WSW,245,0.0,1.0,89,0.02,,,0.05,weatherlink.com 1.10,2013-05-16 18:07:00,
2013-05-16 14:22:00,71.7,69.0,29.93,SW,233,0.0,0.0,91,0.02,,,0.05,weatherlink.com 1.10,2013-05-16 18:22:00,
2013-05-16 14:37:00,71.3,69.0,29.95,SW,236,0.0,0.0,91,0.00,,,0.05,weatherlink.com 1.10,2013-05-16 18:37:00,
2013-05-16 14:52:00,71.2,69.0,29.95,SW,232,0.0,0.0,92,0.00,,,0.05,weatherlink.com 1.10,2013-05-16 18:52:00,
2013-05-16 15:08:00,70.6,68.0,29.95,SSW,211,2.0,3.0,91,0.00,,,0.05,weatherlink.com 1.10,2013-05-16 19:08:00,
2013-05-16 15:23:00,70.6,68.0,29.95,SSW,194,2.0,4.0,91,0.00,,,0.05,weatherlink.com 1.10,2013-05-16 19:23:00,
2013-05-16 15:38:00,71.2,68.0,29.95,SW,231,2.0,5.0,90,0.00,,,0.05,weatherlink.com 1.10,2013-05-16 19:38:00,
2013-05-16 15:53:00,72.7,68.0,29.93,SSW,200,4.0,5.0,85,0.01,,,0.06,weatherlink.com 1.10,2013-05-16 19:53:00,
2013-05-16 16:08:00,73.8,67.0,29.93,SW,219,3.0,4.0,80,0.01,,,0.06,weatherlink.com 1.10,2013-05-16 20:08:00,
2013-05-16 16:23:00,73.2,67.0,29.93,SW,235,0.0,4.0,81,0.01,,,0.06,weatherlink.com 1.10,2013-05-16 20:23:00,
2013-05-16 16:38:00,72.7,67.0,29.94,SSW,211,1.0,2.0,83,0.01,,,0.06,weatherlink.com 1.10,2013-05-16 20:38:00,
2013-05-16 16:53:00,71.6,67.0,29.93,WSW,252,2.0,5.0,84,0.00,,,0.06,weatherlink.com 1.10,2013-05-16 20:53:00,
2013-05-16 17:08:00,71.5,67.0,29.93,West,269,0.0,3.0,84,0.00,,,0.06,weatherlink.com 1.10,2013-05-16 21:08:00,
2013-05-16 17:23:00,72.4,67.0,29.93,West,266,2.0,4.0,83,0.00,,,0.06,weatherlink.com 1.10,2013-05-16 21:23:00,
2013-05-16 17:38:00,74.3,68.0,29.93,SE,143,1.0,5.0,80,0.00,,,0.06,weatherlink.com 1.10,2013-05-16 21:38:00,
2013-05-16 17:53:00,74.7,68.0,29.93,SW,236,1.0,6.0,79,0.00,,,0.06,weatherlink.com 1.10,2013-05-16 21:53:00,
2013-05-16 18:08:00,75.6,68.0,29.93,SW,235,1.0,3.0,76,0.00,,,0.06,weatherlink.com 1.10,2013-05-16 22:08:00,
2013-05-16 18:23:00,75.3,67.0,29.93,SW,217,2.0,3.0,75,0.00,,,0.06,weatherlink.com 1.10,2013-05-16 22:23:00,
2013-05-16 18:53:00,72.7,66.0,29.93,SW,219,1.0,5.0,78,0.00,,,0.06,weatherlink.com 1.10,2013-05-16 22:53:00,
2013-05-16 19:08:00,72.0,65.0,29.93,WSW,239,1.0,4.0,79,0.00,,,0.06,weatherlink.com 1.10,2013-05-16 23:08:00,
2013-05-16 19:23:00,71.2,65.0,29.93,WSW,239,0.0,5.0,81,0.00,,,0.06,weatherlink.com 1.10,2013-05-16 23:23:00,
2013-05-16 19:38:00,71.1,65.0,29.93,WSW,256,1.0,4.0,82,0.00,,,0.06,weatherlink.com 1.10,2013-05-16 23:38:00,
2013-05-16 19:53:00,71.0,65.0,29.93,SSW,196,2.0,4.0,81,0.00,,,0.06,weatherlink.com 1.10,2013-05-16 23:53:00,
2013-05-16 20:08:00,70.5,65.0,29.93,WSW,242,0.0,3.0,82,0.00,,,0.06,weatherlink.com 1.10,2013-05-17 00:08:00,
2013-05-16 20:23:00,69.9,65.0,29.93,WSW,253,1.0,4.0,83,0.00,,,0.06,weatherlink.com 1.10,2013-05-17 00:23:00,
2013-05-16 20:38:00,69.2,64.0,29.93,SW,236,0.0,3.0,84,0.00,,,0.06,weatherlink.com 1.10,2013-05-17 00:38:00,
2013-05-16 20:53:00,68.2,64.0,29.94,SW,236,0.0,0.0,86,0.00,,,0.06,weatherlink.com 1.10,2013-05-17 00:53:00,
2013-05-16 21:08:00,67.0,64.0,29.95,WSW,239,0.0,0.0,89,0.00,,,0.06,weatherlink.com 1.10,2013-05-17 01:08:00,
2013-05-16 21:23:00,66.2,63.0,29.95,WSW,239,0.0,0.0,90,0.00,,,0.06,weatherlink.com 1.10,2013-05-17 01:23:00,
2013-05-16 21:38:00,65.4,63.0,29.96,WSW,239,0.0,0.0,92,0.00,,,0.06,weatherlink.com 1.10,2013-05-17 01:38:00,
2013-05-16 21:53:00,64.8,63.0,29.96,WSW,239,0.0,0.0,93,0.00,,,0.06,weatherlink.com 1.10,2013-05-17 01:53:00,
2013-05-16 22:08:00,64.6,63.0,29.97,WSW,239,0.0,1.0,94,0.00,,,0.06,weatherlink.com 1.10,2013-05-17 02:08:00,
2013-05-16 22:24:00,64.5,63.0,29.98,WSW,239,0.0,0.0,94,0.00,,,0.06,weatherlink.com 1.10,2013-05-17 02:24:00,
2013-05-16 22:38:00,64.3,63.0,29.98,WSW,239,0.0,0.0,95,0.00,,,0.06,weatherlink.com 1.10,2013-05-17 02:38:00,
2013-05-16 22:53:00,63.9,63.0,29.98,WSW,239,0.0,0.0,95,0.00,,,0.06,weatherlink.com 1.10,2013-05-17 02:53:00,
2013-05-16 23:08:00,63.8,62.0,29.98,WSW,239,0.0,0.0,95,0.00,,,0.06,weatherlink.com 1.10,2013-05-17 03:08:00,
2013-05-16 23:23:00,63.6,62.0,29.98,WSW,239,0.0,0.0,95,0.00,,,0.06,weatherlink.com 1.10,2013-05-17 03:23:00,
2013-05-16 23:38:00,63.4,62.0,29.98,WSW,239,0.0,0.0,96,0.00,,,0.06,weatherlink.com 1.10,2013-05-17 03:38:00,
2013-05-16 23:53:00,63.1,62.0,29.99,WSW,239,0.0,0.0,96,0.00,,,0.06,weatherlink.com 1.10,2013-05-17 03:53:00,